Terminal Aerodrome Forecast
Issued by NWS Green Bay, WI

Home | Current Version | Previous Version | Graphics & Text | Print | Product List | Glossary On
Versions: 1 2 3 4 5 6 7 8 9 10 11 12 13 14 15 16 17 18 19 20 21 22 23 24 25 26 27
000
FTUS43 KGRB 211720
TAFGRB
TAF
KGRB 211720Z 2118/2218 05006KT P6SM FEW070
     FM212300 17004KT P6SM SCT080
     FM220300 24004KT P6SM FEW080
     FM220500 36004KT P6SM SKC
     FM221500 04005KT P6SM SKC=

USA.gov is the U.S. government's official web portal to all federal, state and local government web resources and services.